ヨハネスブルグ の空港の天気 - METARとTAF

ヨハネスブルグ/O.R.タンボ国際空港 ( FAOR / JNB ) - 南アフリカ ヨハネスブルグ
飛行場実況気象(Metar)
観測時間05/25 05:00 SAST (05/25 03:00 UTC)
風向・風速南 3m/s
視程10km以上
天気現象
なし
気温12℃
湿度44%
気圧1024hPa
METARFAOR 250300Z 19005KT CAVOK 12/00 Q1024 NOSIG
過去の天気等 Google飛行場航空写真 Wunderground天気予報

過去48時間のMETAR

飛行場予報(TAF)
発表時間: 5/25 00:00 SAST (5/24 22:00 UTC)
予報対象時間: 25日2時 SAST ~ 26日8時 SAST
風向・風速南西 3m/s
視程10km以上
なし
25日18時 SAST ~ 25日20時 SAST に徐々に
風向・風速不定 2m/s
25日21時 SAST ~ 25日23時 SAST に徐々に
風向・風速北北東 3m/s
TAF FAOR 242200Z 2500/2606 22006KT CAVOK
BECMG 2516/2518 VRB03KT
BECMG 2519/2521 03006KT TX22/2513Z TN11/2504Z